»·PEaware :: SWA5239 KLAS-KLAX

SWA5239 :: KLAS-KLAX

FLIGHT INFORMATION

Flight Status: Arrived
Operator:
Southwest Airlines
More flights by this operator :: More flights under this callsign
Pilot: Ben L. (6391)
Aircraft: BOEING 737-800
(B738)
More flights by this aircraft type
Origin: KLAS McCarran Intl
United States
Destination: KLAX Los Angeles Intl
United States
More flights between these airports :: More routes between these airports
Route: BOACH8 RIKII SHTNR ANJLL4
File this flight plan on PilotEdge
Remarks:
Altitude:
(Current/Filed)
30,000ft
Speed:
(Current/Filed)
450kts
Departed: 16-Feb-20 12:33 PM
Arrived: 16-Feb-20 01:17 PM
Distance/Time
Traveled:
205nm/0:44
Distance/Time
To Go:
Arrived

Flight Plot

Page will automatically refresh every two minutes.

Flight plan parsing failed; only flown route is shown


Map Options




Map Legend


Flown Route
Filed Route
Departure Airport
Arrival Airport
Navaid (VOR, NDB)
Fix

Horizontal Profiles

Position Reports

Time Latitude Longitude Heading Altitude Ground
Speed
16-Feb-20 11:55 36.083067 -115.150584 220 2107ft 0kts
16-Feb-20 11:56 36.083067 -115.150584 220 2107ft 0kts
16-Feb-20 11:57 36.083067 -115.150584 220 2107ft 0kts
16-Feb-20 11:58 36.083067 -115.150584 220 2107ft 0kts
16-Feb-20 11:59 36.083067 -115.150584 220 2107ft 0kts
16-Feb-20 12:00 36.083067 -115.150584 220 2107ft 0kts
16-Feb-20 12:01 36.083067 -115.150584 220 2107ft 0kts
16-Feb-20 12:02 36.083067 -115.150584 220 2107ft 0kts
16-Feb-20 12:03 36.083067 -115.150584 220 2107ft 0kts
16-Feb-20 12:04 36.083067 -115.150584 220 2107ft 0kts
16-Feb-20 12:05 36.083067 -115.150584 220 2107ft 0kts
16-Feb-20 12:06 36.083067 -115.150584 220 2107ft 0kts
16-Feb-20 12:07 36.083067 -115.150584 220 2107ft 0kts
16-Feb-20 12:08 36.083067 -115.150584 220 2107ft 0kts
16-Feb-20 12:09 36.083067 -115.150584 220 2107ft 0kts
16-Feb-20 12:10 36.083067 -115.150584 220 2107ft 0kts
16-Feb-20 12:11 36.083067 -115.150584 220 2107ft 0kts
16-Feb-20 12:12 36.083067 -115.150584 220 2107ft 0kts
16-Feb-20 12:13 36.083067 -115.150584 220 2107ft 0kts
16-Feb-20 12:14 36.083148 -115.150495 236 2107ft 2kts
16-Feb-20 12:15 36.082964 -115.149889 347 2106ft 2kts
16-Feb-20 12:16 36.082650 -115.150001 39 2106ft 0kts
16-Feb-20 12:17 36.082651 -115.150000 39 2106ft 0kts
16-Feb-20 12:18 36.082477 -115.149351 139 2105ft 0kts
16-Feb-20 12:19 36.080343 -115.148851 156 2106ft 15kts
16-Feb-20 12:20 36.078743 -115.147821 127 2107ft 15kts
16-Feb-20 12:21 36.078291 -115.138630 90 2079ft 27kts
16-Feb-20 12:22 36.078300 -115.129972 90 2054ft 27kts
16-Feb-20 12:23 36.078285 -115.123264 89 2043ft 17kts
16-Feb-20 12:24 36.077863 -115.122101 128 2042ft 6kts
16-Feb-20 12:25 36.077771 -115.121956 128 2042ft 0kts
16-Feb-20 12:26 36.077771 -115.121956 128 2042ft 0kts
16-Feb-20 12:27 36.077349 -115.121416 147 2041ft 0kts
16-Feb-20 12:28 36.077349 -115.121416 147 2041ft 0kts
16-Feb-20 12:29 36.076434 -115.121551 260 2042ft 8kts
16-Feb-20 12:30 36.076424 -115.121702 269 2043ft 0kts
16-Feb-20 12:31 36.076424 -115.121707 269 2043ft 0kts
16-Feb-20 12:32 36.076416 -115.133762 270 2067ft 141kts
16-Feb-20 12:33 36.076750 -115.190978 277 4275ft 181kts
16-Feb-20 12:34 36.076705 -115.256238 221 5440ft 250kts
16-Feb-20 12:35 36.004961 -115.286921 199 6935ft 287kts
16-Feb-20 12:36 35.927952 -115.306995 185 7044ft 283kts
16-Feb-20 12:37 35.850551 -115.314032 178 9013ft 292kts
16-Feb-20 12:38 35.767772 -115.304912 176 11587ft 305kts
16-Feb-20 12:39 35.681676 -115.295316 179 14712ft 319kts
16-Feb-20 12:40 35.591004 -115.298077 184 17646ft 335kts
16-Feb-20 12:41 35.498265 -115.316811 204 20305ft 345kts
16-Feb-20 12:42 35.412077 -115.371083 213 22720ft 356kts
16-Feb-20 12:43 35.325114 -115.433226 214 23100ft 356kts
16-Feb-20 12:44 35.239608 -115.495057 214 23101ft 359kts
16-Feb-20 12:45 35.154964 -115.558971 219 23105ft 356kts
16-Feb-20 12:46 35.080398 -115.637546 227 23128ft 352kts
16-Feb-20 12:47 35.014285 -115.719653 228 23151ft 352kts
16-Feb-20 12:48 34.945687 -115.806780 228 23145ft 358kts
16-Feb-20 12:49 34.878682 -115.892010 227 23152ft 360kts
16-Feb-20 12:50 34.809163 -115.980263 227 23154ft 360kts
16-Feb-20 12:51 34.740052 -116.067852 227 23154ft 360kts
16-Feb-20 12:52 34.669331 -116.157804 228 23161ft 392kts
16-Feb-20 12:53 34.589147 -116.259747 227 23154ft 441kts
16-Feb-20 12:54 34.501881 -116.370367 227 23155ft 453kts
16-Feb-20 12:55 34.422107 -116.487912 239 23173ft 452kts
16-Feb-20 12:56 34.360619 -116.619978 243 22473ft 446kts
16-Feb-20 12:57 34.305969 -116.749663 245 21987ft 443kts
16-Feb-20 12:58 34.251928 -116.882845 245 21492ft 440kts
16-Feb-20 12:59 34.202989 -117.018032 252 20589ft 427kts
16-Feb-20 13:00 34.166491 -117.149186 253 18146ft 401kts
16-Feb-20 13:01 34.132155 -117.273139 254 15892ft 377kts
16-Feb-20 13:02 34.101506 -117.384584 256 13928ft 325kts
16-Feb-20 13:03 34.077007 -117.483165 257 12212ft 292kts
16-Feb-20 13:04 34.051995 -117.581639 256 11452ft 303kts
16-Feb-20 13:05 34.027507 -117.677313 255 10312ft 291kts
16-Feb-20 13:06 34.008548 -117.767021 262 9797ft 273kts
16-Feb-20 13:07 34.000013 -117.855826 271 8693ft 264kts
16-Feb-20 13:08 33.994575 -117.940249 265 7346ft 247kts
16-Feb-20 13:09 33.990581 -118.021816 266 6240ft 243kts
16-Feb-20 13:10 33.983407 -118.102671 264 5132ft 238kts
16-Feb-20 13:11 33.976003 -118.174960 264 3919ft 214kts
16-Feb-20 13:12 33.968800 -118.244341 263 2745ft 201kts
16-Feb-20 13:13 33.962334 -118.306107 263 1711ft 166kts
16-Feb-20 13:14 33.956545 -118.358783 260 778ft 146kts
16-Feb-20 13:15 33.951710 -118.405691 262 137ft 144kts
16-Feb-20 13:16 33.948616 -118.426633 229 114ft 1kts
16-Feb-20 13:17 33.947634 -118.427559 205 114ft 15kts
16-Feb-20 13:18 33.946773 -118.422985 83 114ft 20kts
16-Feb-20 13:19 33.947502 -118.415882 82 114ft 25kts
16-Feb-20 13:20 33.948517 -118.407182 83 114ft 27kts
16-Feb-20 13:21 33.947704 -118.402620 168 114ft 11kts
16-Feb-20 13:22 33.946138 -118.401827 90 114ft 0kts
16-Feb-20 13:24 33.946138 -118.401827 90 114ft 0kts
16-Feb-20 13:25 33.946138 -118.401827 90 114ft 0kts
16-Feb-20 13:26 33.946138 -118.401827 90 114ft 0kts
16-Feb-20 13:27 33.946138 -118.401827 90 114ft 0kts
16-Feb-20 13:28 33.946138 -118.401827 90 114ft 0kts
16-Feb-20 13:29 33.946138 -118.401827 90 114ft 0kts
16-Feb-20 13:30 33.946138 -118.401827 90 114ft 0kts
16-Feb-20 13:31 33.946138 -118.401827 90 114ft 0kts

Navigation Log

Ident Type
Flight plan parsing failed, navigation log unavailable